Opa-locka Executive Airport
KOPF : now visible

Airfield :











YOU CAN JOIN US ON...

 
LOGIN :

Register | Disclaimer

   EN    FR    IT 

 









Legend :    VFR   Marginal VFR   IFR   Intensive IFR   Very Intensive IFR
Visi :
Ceiling :
>= 8 km
>= 3000ft
5 to 8 km
1000 to 3000 ft
1500m to 5 km
500 to 1000 ft
800 to 1500m
200 to 500 ft
< 800m
< 200 ft
Symbols :   Thunderstorms  Fog  Heavy snow  Heavy precipitations  Wind > 20 kt






- Airport Elevation : 8 ft


KOPF - Opa-locka Executive

CURRENT METAR :
  • 230153Z 00000KT 10SM SCT070 22/16 A3008 RMK AO2 SLP185 T02220161

EXPIRED METARs :
  • 230053Z 11003KT 10SM OVC070 22/16 A3007 RMK AO2 SLP184 T02220161
  • 222353Z 06004KT 10SM CLR 23/16 A3007 RMK AO2 SLP182 T02280156 10278 20228 53008

TAF KOPF
Valid from the 23 at 00:00 until the 24 at 00:00 UTC


222338Z 2300/2324 09006KT P6SM SCT030 SCT250
FM230200 VRB05KT P6SM FEW035
FM231400 11007KT P6SM SCT040 SCT250
FM231800 14010KT P6SM BKN035 BKN250



MET'MAP, your aeronautical weather chart ! - Copyright ORBIFLY December 2007 - Disclaimer

ORBIFLY MET'MAP TEAM :

Programming & Development : Alexandra Zaïnal
Concept & Development : Baudouin d'Aumeries
Co-Development & Prog : Marc-Olivier Méhu
Technical & hardware support : Manuel Goepfert

Contact : metmap@orbifly.com




SOURCES & CREDITS :

   NOAA       Earth
Advisory